createdAt,value
2022-10-22T00:01:02.589Z,27.73
2022-10-22T00:03:31.207Z,26.50
2022-10-22T00:05:59.815Z,26.83
2022-10-22T00:08:28.129Z,27.48
2022-10-22T00:10:56.552Z,36.75
2022-10-22T00:13:25.251Z,36.28
2022-10-22T00:15:53.376Z,35.75
2022-10-22T00:18:21.715Z,31.80
2022-10-22T00:20:49.857Z,33.90
2022-10-22T00:23:18.169Z,32.30
2022-10-22T00:25:46.567Z,28.20
2022-10-22T00:28:15.196Z,27.48
2022-10-22T00:30:43.439Z,26.02
2022-10-22T00:33:11.497Z,23.77
2022-10-22T00:35:39.932Z,23.15
2022-10-22T00:38:08.063Z,22.13
2022-10-22T00:40:36.724Z,21.90
2022-10-22T00:43:05.146Z,20.35
2022-10-22T00:45:33.201Z,21.95
2022-10-22T00:48:11.305Z,22.63
2022-10-22T00:50:45.741Z,19.90
2022-10-22T00:53:19.499Z,21.10
2022-10-22T00:55:52.047Z,22.10
2022-10-22T00:58:22.789Z,20.70
2022-10-22T01:00:51.970Z,20.75
2022-10-22T01:03:20.982Z,22.17
2022-10-22T01:06:01.166Z,23.55
2022-10-22T01:09:07.536Z,22.00
2022-10-22T01:12:03.196Z,21.02
2022-10-22T01:15:07.063Z,20.48
2022-10-22T01:17:53.096Z,21.55
2022-10-22T01:20:21.323Z,21.55
2022-10-22T01:23:04.733Z,23.67
2022-10-22T01:25:38.603Z,22.88
2022-10-22T01:28:51.144Z,21.48
2022-10-22T01:31:22.178Z,22.27
2022-10-22T01:33:54.041Z,22.70
2022-10-22T01:36:22.971Z,26.05
2022-10-22T01:38:52.706Z,26.20
2022-10-22T01:41:21.190Z,28.17
2022-10-22T01:43:49.425Z,26.88
2022-10-22T01:46:18.855Z,25.48
2022-10-22T01:49:05.499Z,26.38
2022-10-22T01:51:58.333Z,26.02
2022-10-22T01:54:40.164Z,26.48
2022-10-22T01:57:44.701Z,25.85
2022-10-22T02:00:15.400Z,25.45
2022-10-22T02:02:52.495Z,25.05
2022-10-22T02:05:29.188Z,23.98
2022-10-22T02:08:09.708Z,24.27
2022-10-22T02:10:44.993Z,22.10
2022-10-22T02:13:20.525Z,23.45
2022-10-22T02:15:52.491Z,21.95
2022-10-22T02:18:30.310Z,22.80
2022-10-22T02:21:00.470Z,22.25
2022-10-22T02:23:29.375Z,22.45
2022-10-22T02:26:28.841Z,23.42
2022-10-22T02:29:22.247Z,23.60
2022-10-22T02:31:53.411Z,23.70
2022-10-22T02:34:26.946Z,26.70
2022-10-22T02:36:56.155Z,26.30
2022-10-22T02:39:24.608Z,27.98
2022-10-22T02:41:52.977Z,32.65
2022-10-22T02:44:22.839Z,31.63
2022-10-22T02:46:51.706Z,29.70
2022-10-22T02:49:20.003Z,28.92
2022-10-22T02:51:48.288Z,28.55
2022-10-22T02:54:16.643Z,25.48
2022-10-22T02:56:44.809Z,25.48
2022-10-22T02:59:13.047Z,24.20
2022-10-22T03:01:41.175Z,23.58
2022-10-22T03:04:09.865Z,24.75
2022-10-22T03:06:37.925Z,25.92
2022-10-22T03:09:06.206Z,26.92
2022-10-22T03:11:34.431Z,26.02
2022-10-22T03:14:02.663Z,25.52
2022-10-22T03:16:30.864Z,24.77
2022-10-22T03:18:59.076Z,25.20
2022-10-22T03:21:32.560Z,24.88
2022-10-22T03:24:06.404Z,25.60
2022-10-22T03:26:35.190Z,24.58
2022-10-22T03:29:03.445Z,22.92
2022-10-22T03:31:31.778Z,21.92
2022-10-22T03:33:59.939Z,24.20
2022-10-22T03:36:28.276Z,24.13
2022-10-22T03:38:56.724Z,24.02
2022-10-22T03:41:24.904Z,24.23
2022-10-22T03:43:53.275Z,24.73
2022-10-22T03:46:21.629Z,23.10
2022-10-22T03:48:50.075Z,23.17
2022-10-22T03:51:18.287Z,21.92
2022-10-22T03:53:46.748Z,22.92
2022-10-22T03:56:15.282Z,21.55
2022-10-22T03:58:43.526Z,20.92
2022-10-22T04:01:13.447Z,22.20
2022-10-22T04:03:42.239Z,22.13
2022-10-22T04:06:14.806Z,23.48
2022-10-22T04:08:45.196Z,23.58
2022-10-22T04:11:14.394Z,22.92
2022-10-22T04:13:43.113Z,23.48
2022-10-22T04:16:16.463Z,23.08
2022-10-22T04:18:46.317Z,22.90
2022-10-22T04:21:17.925Z,21.13
2022-10-22T04:23:51.220Z,20.83
2022-10-22T04:26:20.784Z,19.02
2022-10-22T04:28:51.429Z,19.70
2022-10-22T04:31:22.413Z,19.58
2022-10-22T04:33:58.346Z,19.02
2022-10-22T04:36:27.579Z,19.65
2022-10-22T04:38:58.348Z,18.65
2022-10-22T04:41:29.891Z,18.92
2022-10-22T04:43:59.293Z,19.92
2022-10-22T04:46:31.819Z,19.45
2022-10-22T04:49:00.404Z,20.17
2022-10-22T04:51:28.953Z,19.40
2022-10-22T04:53:57.292Z,19.20
2022-10-22T04:56:57.313Z,18.15
2022-10-22T04:59:25.648Z,19.92
2022-10-22T05:01:53.702Z,19.27
2022-10-22T05:04:21.952Z,18.50
2022-10-22T05:06:50.307Z,18.90
2022-10-22T05:09:20.491Z,20.67
2022-10-22T05:11:51.182Z,20.15
2022-10-22T05:14:22.228Z,22.15
2022-10-22T05:16:51.331Z,19.90
2022-10-22T05:19:23.799Z,21.08
2022-10-22T05:21:57.354Z,21.30
2022-10-22T05:24:26.641Z,20.85
2022-10-22T05:26:56.758Z,22.50
2022-10-22T05:29:25.473Z,22.15
2022-10-22T05:31:54.040Z,22.08
2022-10-22T05:34:22.334Z,24.17
2022-10-22T05:36:50.731Z,23.88
2022-10-22T05:39:18.939Z,23.20
2022-10-22T05:41:47.262Z,23.85
2022-10-22T05:44:15.404Z,23.25
2022-10-22T05:46:43.614Z,22.33
2022-10-22T05:49:16.609Z,23.75
2022-10-22T05:51:44.851Z,24.65
2022-10-22T05:54:21.389Z,22.67
2022-10-22T05:56:50.005Z,24.58
2022-10-22T05:59:18.244Z,23.42
2022-10-22T06:01:46.463Z,21.05
2022-10-22T06:04:14.893Z,22.05
2022-10-22T06:07:00.745Z,21.17
2022-10-22T06:09:35.419Z,21.90
2022-10-22T06:12:03.931Z,21.33
2022-10-22T06:14:32.516Z,21.98
2022-10-22T06:17:01.204Z,22.85
2022-10-22T06:19:29.518Z,22.23
2022-10-22T06:21:57.601Z,23.35
2022-10-22T06:24:25.899Z,23.10
2022-10-22T06:26:53.993Z,24.10
2022-10-22T06:29:22.744Z,23.88
2022-10-22T06:31:51.199Z,24.92
2022-10-22T06:34:19.313Z,24.65
2022-10-22T06:36:47.981Z,27.35
2022-10-22T06:39:18.211Z,25.80
2022-10-22T06:41:46.553Z,26.40
2022-10-22T06:44:21.617Z,24.05
2022-10-22T06:46:53.352Z,23.73
2022-10-22T06:49:22.008Z,24.00
2022-10-22T06:51:54.119Z,26.75
2022-10-22T06:56:50.978Z,25.10
2022-10-22T06:59:19.043Z,24.08
2022-10-22T07:01:47.475Z,25.55
2022-10-22T07:04:15.710Z,24.25
2022-10-22T07:06:43.863Z,24.02
2022-10-22T07:09:12.244Z,24.40
2022-10-22T07:11:45.493Z,24.60
2022-10-22T07:14:14.732Z,24.23
2022-10-22T07:16:42.974Z,23.95
2022-10-22T07:19:11.256Z,25.33
2022-10-22T07:21:39.868Z,25.38
2022-10-22T07:24:08.408Z,24.25
2022-10-22T07:26:36.980Z,23.75
2022-10-22T07:29:05.863Z,23.65
2022-10-22T07:31:34.263Z,23.77
2022-10-22T07:34:02.448Z,23.13
2022-10-22T07:36:30.768Z,24.38
2022-10-22T07:39:00.430Z,24.73
2022-10-22T07:41:30.590Z,24.48
2022-10-22T07:43:59.307Z,23.55
2022-10-22T07:46:28.216Z,22.65
2022-10-22T07:48:56.758Z,20.75
2022-10-22T07:51:25.051Z,21.00
2022-10-22T07:53:53.438Z,19.38
2022-10-22T07:56:21.920Z,18.92
2022-10-22T07:58:50.169Z,18.52
2022-10-22T08:01:18.558Z,19.77
2022-10-22T08:03:46.986Z,20.00
2022-10-22T08:06:15.242Z,20.60
2022-10-22T08:08:43.816Z,18.45
2022-10-22T08:11:12.737Z,19.88
2022-10-22T08:13:45.122Z,18.42
2022-10-22T08:16:14.335Z,18.55
2022-10-22T08:18:43.047Z,17.85
2022-10-22T08:21:12.381Z,16.25
2022-10-22T08:23:40.873Z,16.13
2022-10-22T08:26:09.156Z,14.85
2022-10-22T08:28:37.819Z,15.85
2022-10-22T08:31:08.136Z,14.40
2022-10-22T08:33:36.860Z,15.75
2022-10-22T08:36:05.393Z,15.25
2022-10-22T08:38:33.780Z,14.20
2022-10-22T08:41:14.978Z,15.00
2022-10-22T08:44:10.158Z,13.27
2022-10-22T08:47:19.964Z,13.85
2022-10-22T08:49:50.859Z,13.00
2022-10-22T08:52:20.389Z,12.60
2022-10-22T08:54:57.908Z,13.85
2022-10-22T08:57:45.689Z,12.27
2022-10-22T09:00:49.463Z,12.63
2022-10-22T09:03:53.373Z,11.15
2022-10-22T09:06:33.414Z,10.65
2022-10-22T09:09:05.911Z,10.18
2022-10-22T09:11:37.491Z,10.15
2022-10-22T09:14:06.614Z,9.20
2022-10-22T09:16:43.417Z,8.13
2022-10-22T09:19:40.780Z,8.77
2022-10-22T09:22:41.320Z,8.13
2022-10-22T09:25:20.126Z,9.30
2022-10-22T09:27:49.964Z,8.50
2022-10-22T09:30:21.133Z,7.53
2022-10-22T09:33:00.939Z,8.67
2022-10-22T09:35:33.677Z,9.57
2022-10-22T09:38:08.547Z,9.20
2022-10-22T09:41:06.200Z,9.48
2022-10-22T09:43:35.149Z,7.88
2022-10-22T09:46:07.206Z,8.02
2022-10-22T09:51:20.332Z,6.82
2022-10-22T09:56:33.891Z,5.55
2022-10-22T09:59:02.583Z,5.47
2022-10-22T10:01:34.821Z,5.63
2022-10-22T10:04:12.465Z,6.07
2022-10-22T10:06:43.053Z,5.63
2022-10-22T10:09:18.348Z,4.53
2022-10-22T10:11:54.866Z,4.18
2022-10-22T10:14:50.036Z,5.60
2022-10-22T10:17:37.128Z,5.13
2022-10-22T10:20:23.528Z,4.10
2022-10-22T10:23:08.076Z,4.20
2022-10-22T10:26:13.357Z,5.65
2022-10-22T10:29:09.491Z,5.82
2022-10-22T10:31:56.403Z,7.90
2022-10-22T10:34:40.380Z,6.55
2022-10-22T10:37:41.231Z,6.30
2022-10-22T10:40:29.248Z,5.70
2022-10-22T10:43:22.183Z,6.55
2022-10-22T10:46:05.490Z,5.35
2022-10-22T10:48:45.795Z,5.55
2022-10-22T10:51:26.287Z,5.90
2022-10-22T10:54:13.177Z,5.50
2022-10-22T10:56:52.438Z,4.95
2022-10-22T10:59:36.601Z,6.18
2022-10-22T11:02:29.151Z,5.13
2022-10-22T11:05:29.023Z,5.43
2022-10-22T11:08:01.602Z,6.32
2022-10-22T11:10:53.257Z,6.97
2022-10-22T11:13:59.650Z,7.70
2022-10-22T11:16:33.357Z,8.18
2022-10-22T11:19:07.644Z,7.93
2022-10-22T11:21:59.717Z,8.80
2022-10-22T11:24:31.316Z,11.38
2022-10-22T11:27:25.843Z,10.25
2022-10-22T11:30:03.292Z,12.80
2022-10-22T11:32:34.003Z,7.30
2022-10-22T11:35:09.473Z,9.32
2022-10-22T11:37:38.403Z,8.38
2022-10-22T11:40:14.615Z,9.30
2022-10-22T11:42:50.471Z,10.25
2022-10-22T11:45:18.659Z,9.07
2022-10-22T11:48:11.162Z,9.70
2022-10-22T11:50:42.367Z,10.05
2022-10-22T11:53:16.568Z,10.47
2022-10-22T11:55:48.029Z,9.65
2022-10-22T11:58:29.587Z,8.85
2022-10-22T12:01:21.938Z,9.93
2022-10-22T12:04:06.721Z,10.80
2022-10-22T12:06:54.492Z,10.73
2022-10-22T12:09:25.467Z,12.20
2022-10-22T12:11:53.726Z,12.90
2022-10-22T12:14:27.729Z,10.32
2022-10-22T12:17:10.014Z,9.50
2022-10-22T12:22:38.460Z,16.58
2022-10-22T12:25:23.729Z,11.80
2022-10-22T12:27:57.722Z,12.68
2022-10-22T12:30:32.409Z,12.25
2022-10-22T12:33:02.944Z,10.70
2022-10-22T12:35:33.882Z,10.60
2022-10-22T12:38:08.953Z,10.88
2022-10-22T12:40:37.218Z,9.77
2022-10-22T12:43:30.319Z,9.70
2022-10-22T12:46:00.291Z,9.30
2022-10-22T12:48:33.866Z,8.05
2022-10-22T12:51:05.151Z,9.52
2022-10-22T12:53:45.825Z,10.57
2022-10-22T12:56:18.385Z,8.25
2022-10-22T12:59:26.009Z,6.38
2022-10-22T13:01:55.126Z,8.70
2022-10-22T13:04:32.397Z,9.32
2022-10-22T13:07:06.608Z,7.90
2022-10-22T13:09:43.311Z,6.57
2022-10-22T13:12:12.593Z,6.53
2022-10-22T13:14:41.043Z,6.55
2022-10-22T13:17:15.072Z,5.40
2022-10-22T13:19:55.503Z,4.72
2022-10-22T13:22:36.192Z,16.05
2022-10-22T13:25:16.327Z,10.35
2022-10-22T13:27:49.689Z,7.57
2022-10-22T13:30:25.987Z,12.07
2022-10-22T13:33:03.605Z,5.32
2022-10-22T13:35:37.606Z,6.68
2022-10-22T13:38:16.584Z,6.32
2022-10-22T13:40:44.981Z,9.95
2022-10-22T13:43:13.339Z,9.65
2022-10-22T13:45:41.820Z,9.15
2022-10-22T13:48:17.404Z,10.95
2022-10-22T13:50:46.684Z,10.35
2022-10-22T13:53:21.326Z,5.97
2022-10-22T13:55:49.973Z,4.55
2022-10-22T13:58:23.085Z,9.07
2022-10-22T14:00:57.058Z,6.10
2022-10-22T14:03:34.912Z,8.57
2022-10-22T14:06:03.265Z,6.20
2022-10-22T14:08:32.417Z,6.68
2022-10-22T14:11:00.673Z,5.18
2022-10-22T14:13:28.892Z,6.05
2022-10-22T14:15:57.491Z,4.97
2022-10-22T14:18:27.805Z,5.00
2022-10-22T14:21:01.480Z,4.65
2022-10-22T14:23:31.777Z,7.22
2022-10-22T14:26:01.306Z,14.40
2022-10-22T14:28:31.358Z,31.17
2022-10-22T14:31:00.376Z,14.70
2022-10-22T14:33:32.396Z,12.98
2022-10-22T14:36:01.579Z,8.93
2022-10-22T14:38:30.566Z,9.68
2022-10-22T14:41:00.982Z,13.32
2022-10-22T14:43:31.368Z,6.43
2022-10-22T14:46:00.020Z,19.63
2022-10-22T14:48:29.694Z,10.45
2022-10-22T14:50:57.974Z,7.25
2022-10-22T14:53:26.224Z,9.60
2022-10-22T14:55:54.555Z,7.55
2022-10-22T14:58:22.807Z,6.38
2022-10-22T15:00:51.261Z,8.50
2022-10-22T15:03:19.450Z,6.90
2022-10-22T15:05:47.651Z,6.85
2022-10-22T15:08:16.378Z,8.35
2022-10-22T15:10:44.552Z,6.90
2022-10-22T15:13:12.899Z,5.95
2022-10-22T15:15:41.939Z,4.53
2022-10-22T15:18:10.304Z,6.30
2022-10-22T15:20:38.495Z,7.20
2022-10-22T15:23:06.704Z,6.72
2022-10-22T15:25:35.062Z,8.30
2022-10-22T15:28:09.572Z,5.25
2022-10-22T15:30:38.327Z,5.70
2022-10-22T15:33:07.076Z,7.15
2022-10-22T15:35:35.295Z,9.52
2022-10-22T15:38:03.507Z,5.88
2022-10-22T15:40:32.763Z,7.57
2022-10-22T15:43:00.919Z,6.40
2022-10-22T15:45:29.106Z,4.75
2022-10-22T15:47:57.314Z,5.88
2022-10-22T15:50:25.506Z,6.72
2022-10-22T15:52:53.870Z,5.57
2022-10-22T15:55:22.118Z,5.35
2022-10-22T15:57:50.291Z,3.88
2022-10-22T16:00:18.728Z,4.07
2022-10-22T16:02:46.955Z,4.30
2022-10-22T16:05:15.662Z,5.03
2022-10-22T16:07:44.065Z,4.75
2022-10-22T16:10:12.465Z,6.65
2022-10-22T16:12:40.995Z,4.40
2022-10-22T16:15:10.673Z,6.38
2022-10-22T16:17:38.969Z,4.60
2022-10-22T16:20:07.686Z,4.07
2022-10-22T16:22:35.915Z,4.05
2022-10-22T16:25:04.339Z,4.95
2022-10-22T16:27:32.536Z,3.85
2022-10-22T16:30:00.787Z,4.22
2022-10-22T16:32:29.077Z,5.35
2022-10-22T16:34:57.219Z,5.32
2022-10-22T16:37:25.416Z,4.60
2022-10-22T16:39:53.613Z,4.30
2022-10-22T16:42:21.797Z,3.95
2022-10-22T16:44:50.064Z,5.25
2022-10-22T16:47:18.430Z,4.53
2022-10-22T16:49:46.598Z,4.88
2022-10-22T16:52:14.850Z,4.63
2022-10-22T16:54:42.964Z,4.47
2022-10-22T16:57:11.145Z,4.72
2022-10-22T16:59:42.536Z,5.38
2022-10-22T17:02:13.465Z,5.32
2022-10-22T17:04:41.828Z,5.25
2022-10-22T17:07:10.063Z,5.82
2022-10-22T17:09:38.258Z,5.75
2022-10-22T17:12:06.863Z,6.45
2022-10-22T17:14:35.238Z,7.63
2022-10-22T17:17:03.388Z,5.40
2022-10-22T17:19:31.670Z,9.82
2022-10-22T17:21:59.873Z,9.50
2022-10-22T17:24:27.932Z,5.07
2022-10-22T17:26:56.243Z,5.40
2022-10-22T17:29:24.672Z,6.40
2022-10-22T17:31:52.794Z,38.08
2022-10-22T17:34:21.169Z,14.70
2022-10-22T17:36:49.230Z,11.85
2022-10-22T17:39:18.563Z,55.53
2022-10-22T17:41:47.235Z,13.13
2022-10-22T17:44:16.637Z,47.58
2022-10-22T17:46:45.171Z,39.00
2022-10-22T17:49:19.914Z,14.00
2022-10-22T17:51:48.697Z,7.68
2022-10-22T17:54:17.265Z,7.72
2022-10-22T17:56:45.589Z,6.97
2022-10-22T17:59:16.360Z,23.70
2022-10-22T18:01:45.077Z,50.28
2022-10-22T18:04:18.437Z,55.75
2022-10-22T18:06:47.987Z,30.83
2022-10-22T18:09:18.998Z,6.07
2022-10-22T18:11:48.654Z,6.68
2022-10-22T18:14:19.258Z,8.00
2022-10-22T18:16:48.685Z,10.77
2022-10-22T18:19:19.535Z,14.52
2022-10-22T18:21:47.871Z,15.82
2022-10-22T18:24:16.785Z,34.50
2022-10-22T18:26:45.349Z,20.52
2022-10-22T18:29:16.394Z,18.42
2022-10-22T18:31:45.352Z,17.13
2022-10-22T18:34:13.633Z,27.65
2022-10-22T18:36:42.244Z,27.38
2022-10-22T18:39:15.382Z,23.75
2022-10-22T18:41:43.891Z,17.75
2022-10-22T18:44:14.899Z,26.48
2022-10-22T18:46:43.275Z,25.27
2022-10-22T18:49:17.567Z,17.45
2022-10-22T18:51:46.034Z,17.35
2022-10-22T18:54:28.879Z,21.02
2022-10-22T18:57:00.512Z,9.70
2022-10-22T18:59:30.185Z,7.10
2022-10-22T19:01:58.339Z,8.55
2022-10-22T19:04:27.855Z,11.90
2022-10-22T19:06:57.749Z,12.48
2022-10-22T19:09:26.717Z,12.15
2022-10-22T19:11:55.498Z,11.77
2022-10-22T19:14:23.640Z,8.20
2022-10-22T19:16:51.848Z,7.22
2022-10-22T19:19:22.134Z,9.43
2022-10-22T19:21:50.842Z,11.32
2022-10-22T19:24:20.688Z,10.68
2022-10-22T19:26:49.961Z,10.77
2022-10-22T19:29:20.427Z,10.82
2022-10-22T19:31:49.319Z,11.70
2022-10-22T19:34:17.648Z,13.82
2022-10-22T19:36:45.964Z,8.60
2022-10-22T19:39:18.119Z,9.02
2022-10-22T19:41:46.499Z,8.98
2022-10-22T19:44:14.703Z,10.65
2022-10-22T19:46:43.118Z,9.65
2022-10-22T19:49:12.116Z,10.00
2022-10-22T19:51:40.489Z,10.73
2022-10-22T19:54:13.495Z,9.23
2022-10-22T19:56:41.899Z,7.28
2022-10-22T19:59:10.153Z,7.00
2022-10-22T20:01:38.706Z,7.18
2022-10-22T20:04:07.067Z,6.88
2022-10-22T20:06:35.175Z,6.70
2022-10-22T20:09:03.444Z,6.78
2022-10-22T20:11:31.863Z,7.05
2022-10-22T20:14:00.368Z,7.47
2022-10-22T20:16:30.001Z,8.93
2022-10-22T20:19:03.843Z,7.53
2022-10-22T20:21:33.165Z,8.60
2022-10-22T20:24:02.026Z,9.50
2022-10-22T20:26:30.453Z,9.25
2022-10-22T20:28:59.037Z,10.25
2022-10-22T20:31:29.557Z,10.60
2022-10-22T20:33:59.929Z,11.27
2022-10-22T20:36:29.976Z,9.32
2022-10-22T20:39:03.956Z,8.77
2022-10-22T20:41:32.738Z,16.60
2022-10-22T20:44:01.005Z,36.72
2022-10-22T20:46:31.173Z,79.53
2022-10-22T20:49:14.802Z,8.18
2022-10-22T20:51:43.578Z,5.80
2022-10-22T20:54:11.734Z,5.75
2022-10-22T20:56:41.482Z,6.07
2022-10-22T20:59:10.579Z,5.47
2022-10-22T21:01:50.553Z,6.28
2022-10-22T21:04:20.917Z,5.85
2022-10-22T21:06:49.367Z,5.35
2022-10-22T21:09:17.637Z,4.45
2022-10-22T21:11:46.278Z,3.65
2022-10-22T21:14:16.809Z,3.10
2022-10-22T21:16:47.378Z,4.72
2022-10-22T21:19:16.235Z,5.55
2022-10-22T21:21:44.600Z,6.43
2022-10-22T21:24:13.126Z,6.53
2022-10-22T21:26:43.071Z,5.28
2022-10-22T21:29:12.897Z,4.10
2022-10-22T21:31:41.111Z,4.45
2022-10-22T21:34:09.459Z,6.50
2022-10-22T21:36:37.694Z,5.25
2022-10-22T21:39:05.859Z,5.32
2022-10-22T21:41:34.330Z,4.93
2022-10-22T21:44:02.589Z,6.10
2022-10-22T21:46:30.837Z,5.32
2022-10-22T21:49:04.169Z,6.50
2022-10-22T21:51:34.702Z,4.95
2022-10-22T21:54:03.062Z,4.80
2022-10-22T21:56:34.003Z,4.30
2022-10-22T21:59:03.421Z,4.53
2022-10-22T22:01:31.951Z,4.82
2022-10-22T22:04:00.348Z,4.40
2022-10-22T22:06:33.043Z,4.55
2022-10-22T22:09:03.261Z,5.07
2022-10-22T22:11:31.948Z,5.90
2022-10-22T22:14:01.517Z,7.22
2022-10-22T22:16:32.824Z,7.90
2022-10-22T22:19:06.646Z,7.20
2022-10-22T22:21:36.806Z,6.13
2022-10-22T22:24:05.732Z,5.97
2022-10-22T22:26:34.544Z,5.93
2022-10-22T22:29:02.867Z,5.45
2022-10-22T22:31:33.558Z,5.95
2022-10-22T22:34:09.046Z,6.63
2022-10-22T22:36:39.956Z,6.60
2022-10-22T22:39:11.558Z,5.78
2022-10-22T22:41:40.835Z,6.90
2022-10-22T22:44:09.020Z,6.55
2022-10-22T22:46:37.453Z,6.60
2022-10-22T22:49:05.818Z,6.40
2022-10-22T22:51:34.230Z,6.05
2022-10-22T22:54:03.002Z,5.22
2022-10-22T22:56:33.054Z,5.00
2022-10-22T22:59:01.657Z,4.90
2022-10-22T23:01:35.661Z,5.22
2022-10-22T23:04:16.582Z,4.97
2022-10-22T23:06:45.630Z,4.47
2022-10-22T23:09:15.625Z,5.03
2022-10-22T23:11:45.678Z,4.78
2022-10-22T23:14:15.921Z,4.80
2022-10-22T23:16:47.118Z,5.55
2022-10-22T23:19:17.504Z,6.10
2022-10-22T23:21:51.103Z,5.13
2022-10-22T23:24:22.599Z,5.80
2022-10-22T23:26:52.747Z,4.47
2022-10-22T23:29:24.725Z,4.63
2022-10-22T23:31:53.457Z,7.72
2022-10-22T23:34:24.136Z,9.07
2022-10-22T23:36:53.132Z,8.35
2022-10-22T23:39:24.049Z,9.82
2022-10-22T23:41:53.385Z,9.52
2022-10-22T23:44:23.016Z,10.05
2022-10-22T23:46:51.669Z,9.10
2022-10-22T23:49:20.071Z,10.35
2022-10-22T23:51:48.356Z,9.77
2022-10-22T23:54:18.029Z,9.57
2022-10-22T23:56:46.713Z,8.52
